Flight Track Log - Related Links

Times and Time Zones

All times are in EDT time to prevent confusion due to time zone crossing. See the UAL1716 flight status page for this flight to view local times or setup timezone preferences in your user account.

Time Position Orientation Groundspeed Altitude Reporting Facility
EDT Latitude Longitude Course Direction KTS MPH feet Rate Location/Type
Wed 02:36:52 PM 41.9667 -87.6977 259° West  Level FlightAware Approximate
Wed 02:36:58 PM 41.9333 -87.9167 88° East 193 222 1,900  Level Chicago TRACON
Wed 02:42:12 PM 41.9464 -87.4069 90° East 323 372 15,400 2,599 Climbing Chicago Center
Wed 02:43:12 PM 41.9458 -87.2644 89° East 355 409 18,100 2,550 Climbing Chicago Center
Wed 02:44:12 PM 41.9475 -87.1219 89° East 374 430 20,500 2,250 Climbing Chicago Center
Wed 02:45:12 PM 41.9486 -86.9711 89° East 386 444 22,600 2,250 Climbing Chicago Center
Wed 02:46:12 PM 41.9511 -86.7981 88° East 412 474 25,000 1,950 Climbing Chicago Center
Wed 02:47:12 PM 41.9539 -86.6528 89° East 417 480 26,500 1,400 Climbing Chicago Center
Wed 02:48:12 PM 41.9561 -86.4878 89° East 429 494 27,800 1,300 Climbing Chicago Center
Wed 02:49:12 PM 41.9581 -86.3172 96° East 446 513 29,100 1,250 Climbing Chicago Center
Wed 02:50:12 PM 41.9450 -86.1419 105° East 451 519 30,300 1,500 Climbing Chicago Center
Wed 02:51:12 PM 41.9108 -85.9708 105° East 465 535 32,100 1,567 Climbing Chicago Center
Wed 02:53:12 PM 41.8442 -85.6314 105° East 470 541 35,000 702 Climbing Chicago Center
Wed 02:55:20 PM 41.7689 -85.2528 107° East 490 564 35,000  Level Cleveland Center
Wed 02:56:20 PM 41.7317 -85.0858 106° East 472 543 35,000  Level Cleveland Center
Wed 02:57:20 PM 41.7033 -84.9558 105° East 467 537 35,000  Level Cleveland Center
Wed 02:58:20 PM 41.6664 -84.7753 95° East 461 531 35,000  Level Cleveland Center
Wed 02:59:20 PM 41.6558 -84.6050 94° East 461 531 35,000  Level Cleveland Center
Wed 03:00:20 PM 41.6472 -84.4322 100° East 461 531 35,000  Level Cleveland Center
Wed 03:01:20 PM 41.6239 -84.2500 102° East 458 527 35,000 -50 Level Cleveland Center
Wed 03:02:20 PM 41.5961 -84.0764 102° East 453 521 34,900  Descending Cleveland Center
Wed 03:03:20 PM 41.5714 -83.9250 103° East 459 528 35,000 50 Climbing Cleveland Center
Wed 03:04:20 PM 41.5428 -83.7544 102° East 459 528 35,000  Level Cleveland Center
Wed 03:05:20 PM 41.5161 -83.5839 103° East 465 535 35,000  Level Cleveland Center
Wed 03:06:21 PM 41.4872 -83.4133 102° East 472 543 35,000 -50 Level Cleveland Center
Wed 03:07:20 PM 41.4600 -83.2403 101° East 472 543 34,900  Descending Cleveland Center
Wed 03:08:20 PM 41.4347 -83.0731 102° East 472 543 35,000 50 Climbing Cleveland Center
Wed 03:09:20 PM 41.4069 -82.9031 103° East 472 543 35,000 -450 Level Cleveland Center
Wed 03:10:20 PM 41.3789 -82.7389 103° East 472 543 34,100 -1,000 Descending Cleveland Center
Wed 03:11:20 PM 41.3506 -82.5775 103° East 453 521 33,000 -1,050 Descending Cleveland Center
Wed 03:12:20 PM 41.3239 -82.4219 103° East 442 509 32,000 -1,000 Descending Cleveland Center
Wed 03:13:20 PM 41.2972 -82.2664 103° East 430 495 31,000 -1,200 Descending Cleveland Center
Wed 03:14:20 PM 41.2742 -82.1303 104° East 425 489 29,600 -1,700 Descending Cleveland Center
Wed 03:15:20 PM 41.2447 -81.9722 103° East 415 478 27,600 -1,850 Descending Cleveland Center
Wed 03:16:20 PM 41.2194 -81.8281 103° East 403 464 25,900 -1,700 Descending Cleveland Center
Wed 03:17:20 PM 41.1958 -81.6925 102° East 386 444 24,200 -1,700 Descending Cleveland Center
Wed 03:18:20 PM 41.1742 -81.5569 106° East 381 438 22,500 -1,650 Descending Cleveland Center
Wed 03:19:20 PM 41.1481 -81.4325 104° East 367 422 20,900 -1,600 Descending Cleveland Center
Wed 03:20:20 PM 41.1219 -81.2914 106° East 357 411 19,300 -1,450 Descending Cleveland Center
Wed 03:21:20 PM 41.0956 -81.1728 118° Southeast 338 389 18,000 -1,350 Descending Cleveland Center
Wed 03:22:20 PM 41.0542 -81.0706 120° Southeast 321 369 16,600 -1,450 Descending Cleveland Center
Wed 03:23:20 PM 41.0150 -80.9794 120° Southeast 314 361 15,100 -1,550 Descending Cleveland Center
Wed 03:24:20 PM 40.9714 -80.8775 117° Southeast 309 356 13,500 -1,600 Descending Cleveland Center
Wed 03:25:20 PM 40.9322 -80.7756 119° Southeast 315 362 11,900 -1,550 Descending Cleveland Center
Wed 03:26:20 PM 40.8906 -80.6764 128° Southeast 315 362 10,400 -1,300 Descending Cleveland Center
Wed 03:27:20 PM 40.8364 -80.5858 145° Southeast 299 344 9,300 -1,150 Descending Cleveland Center
Wed 03:28:20 PM 40.7717 -80.5256 146° Southeast 280 322 8,100 -1,250 Descending Cleveland Center
Wed 03:29:20 PM 40.7092 -80.4708 144° Southeast 280 322 6,800 -1,050 Descending Cleveland Center
Wed 03:30:20 PM 40.6550 -80.4189 146° Southeast 275 316 6,000 -393 Descending Cleveland Center
Wed 03:31:22 PM 40.5867 -80.3586 111° Southeast 264 304 6,000  Level FAA TRACON SMA TRACON (SMA)
Wed 03:32:01 PM 40.5708 -80.3056 97° East 219 252 6,000  Level FAA TRACON SMA TRACON (SMA)
Wed 03:32:41 PM 40.5667 -80.2581 95° East 212 244 6,000  Level FAA TRACON SMA TRACON (SMA)
Wed 03:33:22 PM 40.5628 -80.2022 100° East 201 231 6,000 -375 Level FAA TRACON SMA TRACON (SMA)
Wed 03:34:01 PM 40.5569 -80.1608 92° East 171 197 5,500 -1,139 Descending FAA TRACON SMA TRACON (SMA)
Wed 03:34:41 PM 40.5556 -80.1178 92° East 186 214 4,500 -1,500 Descending FAA TRACON SMA TRACON (SMA)

Login

Don't have an account? Register now (free) for customized features, flight alerts, and more!